createdAt,value
2022-09-28T01:14:22.196Z,10.70
2022-09-28T01:22:14.287Z,10.70
2022-09-28T01:41:41.569Z,10.70
2022-09-28T01:58:54.336Z,10.70
2022-09-28T02:18:15.878Z,10.70
2022-09-28T02:56:14.526Z,10.60
2022-09-28T03:02:59.216Z,10.60
2022-09-28T03:03:15.062Z,10.50
2022-09-28T03:06:41.768Z,10.50
2022-09-28T03:09:51.333Z,10.50
2022-09-28T03:12:42.594Z,10.50
2022-09-28T03:19:05.476Z,10.50
2022-09-28T03:22:28.466Z,10.50
2022-09-28T03:41:06.928Z,10.50
2022-09-28T03:43:38.857Z,10.50
2022-09-28T03:44:43.952Z,10.50
2022-09-28T03:49:11.051Z,10.50
2022-09-28T03:52:20.228Z,10.50
2022-09-28T04:11:20.668Z,10.40
2022-09-28T19:37:22.336Z,18.30
2022-09-28T19:39:49.118Z,18.40
2022-09-28T19:42:15.860Z,18.50
2022-09-28T19:44:43.952Z,18.40
2022-09-28T19:47:12.384Z,18.50
2022-09-28T19:49:40.380Z,18.40
2022-09-28T19:52:16.921Z,18.40
2022-09-28T19:54:56.394Z,18.40
2022-09-28T19:57:29.668Z,18.40
2022-09-28T20:00:02.012Z,18.40
2022-09-28T20:02:32.553Z,18.40
2022-09-28T20:04:59.352Z,18.40
2022-09-28T20:07:26.120Z,18.40
2022-09-28T20:09:52.888Z,18.40
2022-09-28T20:12:19.876Z,18.40
2022-09-28T20:14:46.870Z,18.40
2022-09-28T20:17:13.661Z,18.40
2022-09-28T20:19:40.496Z,18.40
2022-09-28T20:22:07.267Z,18.40
2022-09-28T20:24:34.072Z,18.40
2022-09-28T20:27:01.258Z,18.40
2022-09-28T20:29:28.495Z,18.40
2022-09-28T20:31:55.253Z,18.40
2022-09-28T20:34:21.976Z,18.40
2022-09-28T20:36:48.755Z,18.40
2022-09-28T20:39:15.660Z,18.40
2022-09-28T20:41:42.555Z,18.40
2022-09-28T20:44:09.790Z,18.40
2022-09-28T20:46:37.283Z,18.40
2022-09-28T20:49:05.076Z,18.40
2022-09-28T20:51:32.471Z,18.40
2022-09-28T20:53:59.830Z,18.40
2022-09-28T20:56:37.676Z,18.40
2022-09-28T20:59:07.341Z,18.40
2022-09-28T21:01:34.766Z,18.40
2022-09-28T21:04:03.991Z,18.40
2022-09-28T21:06:33.048Z,18.40
2022-09-28T21:08:59.811Z,18.40
2022-09-28T21:11:28.531Z,18.40
2022-09-28T21:13:58.520Z,18.40
2022-09-28T21:16:26.945Z,18.40
2022-09-28T21:18:53.729Z,18.40
2022-09-28T21:21:22.259Z,18.40
2022-09-28T21:23:56.524Z,18.40
2022-09-28T21:26:25.959Z,18.40
2022-09-28T21:28:57.997Z,18.30
2022-09-28T21:31:29.039Z,18.40
2022-09-28T21:33:57.506Z,18.30
2022-09-28T21:36:25.036Z,18.30
2022-09-28T21:38:53.436Z,18.30
2022-09-28T21:41:20.177Z,18.30
2022-09-28T21:43:46.976Z,18.30
2022-09-28T21:46:13.864Z,18.30
2022-09-28T21:48:40.924Z,18.30
2022-09-28T21:51:10.333Z,18.30
2022-09-28T21:53:38.141Z,18.30
2022-09-28T21:56:07.395Z,18.30
2022-09-28T21:58:35.854Z,18.30
2022-09-28T22:01:05.591Z,18.30
2022-09-28T22:03:33.780Z,18.30
2022-09-28T22:06:00.921Z,18.30
2022-09-28T22:08:27.704Z,18.30
2022-09-28T22:11:19.307Z,18.30
2022-09-28T22:13:51.963Z,18.30
2022-09-28T22:16:20.693Z,18.30
2022-09-28T22:18:48.444Z,18.30
2022-09-28T22:21:29.904Z,18.30
2022-09-28T22:24:01.451Z,18.30
2022-09-28T22:26:31.727Z,18.30
2022-09-28T22:29:01.000Z,18.30
2022-09-28T22:31:33.761Z,18.30
2022-09-28T22:34:00.850Z,18.20
2022-09-28T22:36:28.424Z,18.30
2022-09-28T22:38:56.299Z,18.20
2022-09-28T22:41:24.397Z,18.20
2022-09-28T22:43:53.108Z,18.20
2022-09-28T22:46:23.130Z,18.20
2022-09-28T22:48:52.721Z,18.20
2022-09-28T22:51:20.427Z,18.30
2022-09-28T22:53:47.518Z,18.30
2022-09-28T22:56:18.750Z,18.40
2022-09-28T22:58:46.613Z,18.40
2022-09-28T23:01:21.868Z,18.40
2022-09-28T23:03:50.214Z,18.50
2022-09-28T23:10:00.592Z,18.50
2022-09-28T23:12:27.746Z,18.50
2022-09-28T23:14:54.515Z,18.50
2022-09-28T23:17:21.329Z,18.60
2022-09-28T23:19:49.009Z,18.60
2022-09-28T23:22:15.781Z,18.70
2022-09-28T23:24:42.496Z,18.60
2022-09-28T23:27:09.232Z,18.60
2022-09-28T23:29:36.353Z,18.80
2022-09-28T23:32:03.162Z,18.70
2022-09-28T23:34:29.860Z,18.80
2022-09-28T23:36:56.777Z,18.80
2022-09-28T23:39:23.570Z,18.80
2022-09-28T23:41:50.571Z,18.80
2022-09-28T23:44:17.881Z,18.70
2022-09-28T23:46:45.261Z,18.80
2022-09-28T23:49:12.434Z,18.80
2022-09-28T23:51:39.502Z,18.70
2022-09-28T23:54:06.706Z,18.70
2022-09-28T23:56:33.457Z,18.80
2022-09-28T23:59:00.177Z,18.80
